Time;durP1;ratioP1;P1;durP2;ratioP2;P2;SDS_P1;SDS_P2;PMS_P1;PMS_P2;Temp;Humidity;BMP_temperature;BMP_pressure;BME280_temperature;BME280_humidity;BME280_pressure;Samples;Min_cycle;Max_cycle;Signal;HPM_P1;HPM_P2
2023/01/13 00:08:50;;;;;;;5.80;3.80;;;;;;;4.80;88.64;98248.46;434297;1257;108430;-40
2023/01/13 00:18:57;;;;;;;5.80;2.80;;;;;;;4.94;88.69;98247.02;434487;1257;97758;-40
2023/01/13 00:29:04;;;;;;;9.20;4.80;;;;;;;5.02;88.86;98244.63;434450;1253;110934;-39
2023/01/13 00:39:11;;;;;;;7.10;3.60;;;;;;;5.04;88.92;98241.00;434403;1253;108843;-41
2023/01/13 00:49:32;;;;;;;3.50;2.20;;;;;;;5.15;89.06;98244.96;434319;1257;96652;-40
2023/01/13 00:59:39;;;;;;;8.20;2.70;;;;;;;5.36;88.99;98239.52;434334;1257;108530;-40
2023/01/13 01:09:45;;;;;;;8.20;2.80;;;;;;;5.51;89.02;98233.89;434312;1257;97870;-39
2023/01/13 01:19:52;;;;;;;9.50;3.00;;;;;;;5.63;89.15;98221.04;434455;1257;110622;-39
2023/01/13 01:29:59;;;;;;;5.30;2.50;;;;;;;5.70;89.22;98209.48;434414;1257;106773;-39
2023/01/13 01:40:08;;;;;;;4.70;2.00;;;;;;;5.72;89.24;98202.73;434375;1257;97810;-40
2023/01/13 01:50:16;;;;;;;4.50;1.90;;;;;;;5.79;89.02;98181.11;434367;1258;108907;-39
2023/01/13 02:00:25;;;;;;;2.60;1.60;;;;;;;5.87;89.02;98178.52;434368;1257;107486;-42
2023/01/13 02:10:33;;;;;;;4.80;1.70;;;;;;;5.97;88.89;98167.23;434526;1256;97629;-40
2023/01/13 02:20:57;;;;;;;4.30;2.10;;;;;;;5.98;89.11;98158.06;434491;1257;107483;-42
2023/01/13 03:02:09;;;;;;;4.50;1.80;;;;;;;5.91;88.30;98123.40;435047;1256;97903;-40
2023/01/13 03:12:21;;;;;;;6.90;2.30;;;;;;;5.77;88.44;98116.77;435275;1256;109573;-40
2023/01/13 03:22:27;;;;;;;2.70;1.50;;;;;;;5.60;88.27;98108.27;435294;1253;108236;-40
2023/01/13 03:32:35;;;;;;;2.80;2.00;;;;;;;5.57;88.09;98104.86;435271;1257;97529;-40
2023/01/13 03:52:57;;;;;;;4.00;2.00;;;;;;;5.64;88.23;98089.72;435173;1256;107855;-40
2023/01/13 04:03:09;;;;;;;4.20;2.50;;;;;;;5.55;88.19;98103.06;435222;1256;97903;-40
2023/01/13 04:13:19;;;;;;;5.90;2.00;;;;;;;5.56;88.01;98099.38;435290;1256;110092;-40
2023/01/13 04:23:26;;;;;;;;;;;;;;;5.70;87.99;98105.52;435209;1254;107150;-40
2023/01/13 04:33:34;;;;;;;7.30;3.00;;;;;;;5.80;87.98;98094.04;435299;1255;97887;-40
2023/01/13 04:43:41;;;;;;;7.20;2.90;;;;;;;5.80;87.93;98083.30;435315;1256;109688;-39
2023/01/13 04:53:51;;;;;;;5.80;2.90;;;;;;;5.76;87.76;98074.49;435202;1253;96649;-40
2023/01/13 05:03:58;;;;;;;8.90;3.50;;;;;;;5.83;87.54;98078.39;435175;1256;97868;-39
2023/01/13 05:45:02;;;;;;;7.50;3.80;;;;;;;5.92;87.19;98093.73;435142;1256;108065;-40
2023/01/13 05:55:09;;;;;;;5.70;3.50;;;;;;;6.00;87.14;98095.27;435126;1256;97168;-40
2023/01/13 06:05:16;;;;;;;8.30;4.20;;;;;;;6.05;87.00;98095.63;435252;1256;109909;-40
2023/01/13 06:15:24;;;;;;;6.10;4.30;;;;;;;6.01;86.97;98100.80;435158;1253;109456;-40
2023/01/13 06:25:30;;;;;;;6.20;3.10;;;;;;;6.01;86.87;98102.48;435231;1256;98044;-40
2023/01/13 06:35:39;;;;;;;5.90;3.60;;;;;;;6.10;86.74;98098.16;435150;1256;105891;-40
2023/01/13 06:45:45;;;;;;;8.70;3.90;;;;;;;6.16;86.70;98103.14;435250;1256;97483;-40
2023/01/13 06:55:52;;;;;;;14.70;6.00;;;;;;;6.13;86.69;98102.30;435284;1252;111109;-40
2023/01/13 07:06:01;;;;;;;6.50;3.30;;;;;;;6.15;86.40;98101.41;435129;1256;109430;-42
2023/01/13 07:16:09;;;;;;;9.70;4.60;;;;;;;6.24;86.34;98104.78;435207;1253;97886;-40
2023/01/13 07:26:17;;;;;;;9.90;4.70;;;;;;;6.28;86.30;98106.27;435199;1254;107294;-40
2023/01/13 07:36:24;;;;;;;8.00;4.30;;;;;;;6.24;86.16;98109.41;435130;1256;97467;-38
2023/01/13 07:46:31;;;;;;;9.40;4.00;;;;;;;6.26;85.89;98111.21;435295;1256;111670;-40
2023/01/13 07:56:36;;;;;;;6.00;3.20;;;;;;;6.33;85.91;98102.83;435163;1256;108868;-40
2023/01/13 08:06:43;;;;;;;10.20;4.50;;;;;;;6.39;85.84;98104.89;435293;1256;96645;-40
2023/01/13 08:16:48;;;;;;;6.60;4.10;;;;;;;6.39;85.71;98106.10;435063;1253;111734;-40
2023/01/13 08:26:55;;;;;;;7.50;3.80;;;;;;;6.53;85.45;98110.27;435204;1256;108113;-40
2023/01/13 08:37:02;;;;;;;8.10;3.70;;;;;;;6.71;85.33;98110.92;435116;1253;97789;-40
2023/01/13 08:47:09;;;;;;;9.80;4.80;;;;;;;6.87;85.38;98118.34;435146;1253;108431;-40
2023/01/13 09:07:24;;;;;;;8.90;2.80;;;;;;;7.04;84.75;98118.52;435164;1259;110434;-39
2023/01/13 09:17:31;;;;;;;4.10;2.50;;;;;;;7.27;84.65;98124.25;435013;1259;108196;-39
2023/01/13 09:27:38;;;;;;;10.60;4.80;;;;;;;7.54;84.62;98116.91;435038;1258;97874;-42
2023/01/13 09:37:45;;;;;;;102.10;34.70;;;;;;;7.99;84.43;98107.80;435027;1253;110688;-40
2023/01/13 09:47:54;;;;;;;39.60;13.70;;;;;;;8.23;84.06;98095.25;435067;1253;108676;-40
2023/01/13 09:58:01;;;;;;;8.70;4.10;;;;;;;8.42;83.66;98092.15;435107;1256;97788;-40
2023/01/13 10:08:10;;;;;;;10.10;4.50;;;;;;;8.65;83.38;98080.34;435075;1259;109826;-40
2023/01/13 10:28:25;;;;;;;15.10;5.70;;;;;;;8.91;82.70;98073.52;435140;1259;97376;-40
2023/01/13 10:38:38;;;;;;;12.60;6.20;;;;;;;8.96;82.13;98060.11;435014;1259;110832;-39
2023/01/13 11:09:30;;;;;;;19.80;6.90;;;;;;;8.86;81.27;98041.20;435307;1253;110318;-40
2023/01/13 11:19:41;;;;;;;14.30;6.60;;;;;;;8.72;81.29;98040.27;434799;1253;97759;-40
2023/01/13 11:29:50;;;;;;;14.00;6.80;;;;;;;8.81;81.15;98037.98;434687;1259;110922;-39
2023/01/13 11:40:00;;;;;;;9.10;6.10;;;;;;;9.13;80.85;98018.79;434703;1258;107661;-40
2023/01/13 11:50:18;;;;;;;16.80;7.60;;;;;;;9.39;80.78;98013.05;434637;1258;97980;-39
2023/01/13 12:00:47;;;;;;;7.70;3.90;;;;;;;9.45;80.57;98011.04;434644;1253;110572;-39
2023/01/13 12:10:55;;;;;;;8.50;3.80;;;;;;;9.40;80.27;98013.31;434671;1257;109135;-40
2023/01/13 12:21:13;;;;;;;5.40;2.60;;;;;;;9.43;79.80;98008.68;434711;1253;96738;-39
2023/01/13 12:31:22;;;;;;;14.90;6.80;;;;;;;9.47;79.80;97997.31;434510;1258;109411;-39
2023/01/13 12:41:31;;;;;;;6.60;2.50;;;;;;;9.33;79.42;97992.77;434597;1259;107860;-39
2023/01/13 12:52:02;;;;;;;8.50;3.10;;;;;;;9.13;79.47;97998.79;434736;1259;97501;-40
2023/01/13 13:02:26;;;;;;;7.40;3.20;;;;;;;9.11;79.58;97996.80;434647;1266;110365;-41
2023/01/13 13:24:01;;;;;;;9.30;3.90;;;;;;;9.07;79.42;98003.23;434559;1259;97902;-40
2023/01/13 13:34:11;;;;;;;9.40;4.00;;;;;;;8.94;79.40;98003.45;434448;1259;110111;-40
2023/01/13 13:54:41;;;;;;;15.80;8.00;;;;;;;8.83;79.73;98010.77;434421;1259;96596;-39
2023/01/13 14:04:46;;;;;;;11.50;6.40;;;;;;;8.73;79.97;98017.09;434590;1259;110474;-40
2023/01/13 14:25:01;;;;;;;9.40;5.40;;;;;;;8.33;79.86;98036.94;434587;1259;97766;-40
2023/01/13 14:35:09;;;;;;;11.00;5.10;;;;;;;8.22;79.88;98041.40;434396;1267;109406;-40
2023/01/13 14:45:23;;;;;;;15.20;6.40;;;;;;;8.13;79.99;98038.09;434413;1254;107935;-40
2023/01/13 14:55:33;;;;;;;17.20;7.20;;;;;;;7.98;80.13;98047.96;434285;1257;237581;-40
2023/01/13 15:05:48;;;;;;;13.50;8.70;;;;;;;7.82;80.23;98052.71;434433;1259;109930;-40
2023/01/13 15:15:55;;;;;;;15.10;7.10;;;;;;;7.73;80.43;98059.23;434259;1257;106900;-39
2023/01/13 15:36:15;;;;;;;16.10;8.80;;;;;;;7.54;80.78;98064.23;434490;1254;108663;-41
2023/01/13 15:56:48;;;;;;;19.30;11.90;;;;;;;7.43;81.01;98070.20;434445;1257;110555;-40
2023/01/13 16:06:55;;;;;;;22.50;11.90;;;;;;;7.39;81.25;98071.54;434281;1254;108371;-39
2023/01/13 16:17:02;;;;;;;23.10;11.60;;;;;;;7.34;81.50;98078.55;434409;1257;96645;-39
2023/01/13 16:27:12;;;;;;;35.90;14.10;;;;;;;7.40;81.42;98079.95;434442;1257;109453;-39
2023/01/13 16:37:18;;;;;;;22.10;10.50;;;;;;;7.50;81.56;98088.21;434342;1260;107403;-40
2023/01/13 16:47:24;;;;;;;29.50;13.80;;;;;;;7.56;81.69;98102.78;434456;1254;97603;-40
2023/01/13 16:57:30;;;;;;;25.80;14.70;;;;;;;7.53;81.61;98103.39;434411;1254;109300;-40
2023/01/13 17:07:38;;;;;;;20.80;8.90;;;;;;;7.53;81.65;98111.65;434445;1254;97769;-40
2023/01/13 17:27:53;;;;;;;19.20;10.90;;;;;;;7.53;81.94;98126.43;434398;1254;107703;-40
2023/01/13 17:38:00;;;;;;;32.90;16.20;;;;;;;7.38;82.03;98129.30;434323;1257;97656;-41
2023/01/13 17:48:06;;;;;;;23.10;11.80;;;;;;;7.27;82.14;98128.36;434446;1257;110867;-41
2023/01/13 17:58:13;;;;;;;21.30;12.50;;;;;;;7.20;82.45;98140.58;434325;1254;107588;-41
2023/01/13 18:18:26;;;;;;;21.60;11.90;;;;;;;7.06;83.15;98153.42;434465;1254;108687;-40
2023/01/13 18:28:34;;;;;;;16.00;11.00;;;;;;;6.90;83.50;98147.58;434339;1253;97494;-40
2023/01/13 18:38:41;;;;;;;16.30;9.90;;;;;;;6.75;83.85;98147.84;434363;1257;110487;-39
2023/01/13 18:48:48;;;;;;;15.70;10.20;;;;;;;6.73;84.03;98167.14;434256;1257;109443;-40
2023/01/13 18:58:56;;;;;;;15.60;9.90;;;;;;;6.71;84.40;98181.02;434357;1257;97845;-40
2023/01/13 19:19:11;;;;;;;19.70;11.00;;;;;;;6.66;84.82;98193.44;434333;1257;96656;-40
2023/01/13 19:29:18;;;;;;;22.50;13.40;;;;;;;6.63;84.87;98202.03;434399;1257;109954;-40
2023/01/13 19:39:26;;;;;;;24.40;13.90;;;;;;;6.48;85.16;98218.80;434291;1253;108434;-39
2023/01/13 19:49:33;;;;;;;17.60;10.70;;;;;;;6.40;85.23;98224.22;434289;1253;97878;-40
2023/01/13 19:59:41;;;;;;;13.70;8.80;;;;;;;6.41;85.45;98232.30;434561;1254;111030;-40
2023/01/13 20:09:49;;;;;;;13.90;9.10;;;;;;;6.47;85.67;98242.89;434340;1254;108204;-43
2023/01/13 20:19:57;;;;;;;32.20;13.10;;;;;;;6.49;85.78;98275.81;434349;1257;97959;-39
2023/01/13 20:30:08;;;;;;;19.30;11.10;;;;;;;6.41;85.94;98292.70;434266;1257;107752;-41
2023/01/13 20:50:22;;;;;;;19.30;11.60;;;;;;;6.32;86.32;98301.66;434361;1257;111004;-41
2023/01/13 21:00:29;;;;;;;29.10;17.30;;;;;;;6.27;86.63;98323.36;434343;1253;108165;-41
2023/01/13 21:10:36;;;;;;;28.60;16.50;;;;;;;6.12;86.57;98337.66;434465;1257;96673;-41
2023/01/13 21:20:43;;;;;;;22.60;15.00;;;;;;;6.05;86.64;98346.59;434503;1257;111272;-40
2023/01/13 21:30:51;;;;;;;23.40;15.10;;;;;;;6.08;86.76;98353.52;434276;1257;108632;-40
2023/01/13 21:51:04;;;;;;;21.40;12.80;;;;;;;6.16;87.00;98368.33;434296;1257;108545;-40
2023/01/13 22:01:11;;;;;;;17.80;11.20;;;;;;;6.15;87.06;98386.45;434346;1257;97951;-39
2023/01/13 22:11:18;;;;;;;23.70;14.90;;;;;;;6.15;87.29;98388.02;434442;1258;111503;-41
2023/01/13 22:21:26;;;;;;;46.80;22.40;;;;;;;6.05;87.30;98387.85;434434;1259;107703;-40
2023/01/13 22:31:33;;;;;;;27.30;15.80;;;;;;;5.97;87.22;98391.27;434446;1254;97980;-40
2023/01/13 22:41:41;;;;;;;20.00;13.80;;;;;;;5.93;87.31;98397.75;434322;1257;109654;-38
2023/01/13 22:51:48;;;;;;;13.80;10.70;;;;;;;5.87;87.33;98394.80;434348;1255;107106;-40
2023/01/13 23:01:56;;;;;;;17.60;11.60;;;;;;;5.81;87.42;98398.69;434319;1257;97757;-39
2023/01/13 23:12:03;;;;;;;14.80;11.50;;;;;;;5.77;87.51;98396.85;434354;1254;107348;-40
2023/01/13 23:22:11;;;;;;;17.20;13.10;;;;;;;5.68;87.55;98403.44;434471;1254;97781;-39
2023/01/13 23:32:19;;;;;;;18.90;11.60;;;;;;;5.46;87.54;98414.91;434505;1253;109459;-40
2023/01/13 23:42:26;;;;;;;17.90;8.80;;;;;;;5.28;87.43;98423.38;434397;1253;107010;-40
2023/01/13 23:52:33;;;;;;;13.10;8.20;;;;;;;5.22;87.61;98436.13;434421;1259;97877;-40
